sensor_id;sensor_type;location;lat;lon;timestamp;temperature;humidity
25438;DHT22;13364;49.084;9.978;2022-07-29T00:02:27;19.60;99.90
25438;DHT22;13364;49.084;9.978;2022-07-29T00:04:54;19.60;99.90
25438;DHT22;13364;49.084;9.978;2022-07-29T00:07:21;19.60;99.90
25438;DHT22;13364;49.084;9.978;2022-07-29T00:09:48;19.50;99.90
25438;DHT22;13364;49.084;9.978;2022-07-29T00:12:23;19.50;99.90
25438;DHT22;13364;49.084;9.978;2022-07-29T00:14:55;19.50;99.90
25438;DHT22;13364;49.084;9.978;2022-07-29T00:17:23;19.40;99.90
25438;DHT22;13364;49.084;9.978;2022-07-29T00:19:50;19.40;99.90
25438;DHT22;13364;49.084;9.978;2022-07-29T00:22:18;19.40;99.90
25438;DHT22;13364;49.084;9.978;2022-07-29T00:24:46;19.30;99.90
25438;DHT22;13364;49.084;9.978;2022-07-29T00:31:33;19.10;99.90
25438;DHT22;13364;49.084;9.978;2022-07-29T00:34:00;19.00;99.90
25438;DHT22;13364;49.084;9.978;2022-07-29T00:36:27;19.00;99.90
25438;DHT22;13364;49.084;9.978;2022-07-29T00:38:54;18.90;99.90
25438;DHT22;13364;49.084;9.978;2022-07-29T00:41:21;18.90;99.90
25438;DHT22;13364;49.084;9.978;2022-07-29T00:43:48;18.80;99.90
25438;DHT22;13364;49.084;9.978;2022-07-29T00:46:15;18.70;99.90
25438;DHT22;13364;49.084;9.978;2022-07-29T00:48:42;18.60;99.90
25438;DHT22;13364;49.084;9.978;2022-07-29T00:51:09;18.50;99.90
25438;DHT22;13364;49.084;9.978;2022-07-29T00:53:38;18.50;99.90
25438;DHT22;13364;49.084;9.978;2022-07-29T00:56:05;18.40;99.90
25438;DHT22;13364;49.084;9.978;2022-07-29T00:58:32;18.30;99.90
25438;DHT22;13364;49.084;9.978;2022-07-29T01:00:59;18.30;99.90
25438;DHT22;13364;49.084;9.978;2022-07-29T01:03:26;18.30;99.90
25438;DHT22;13364;49.084;9.978;2022-07-29T01:05:54;18.20;99.90
25438;DHT22;13364;49.084;9.978;2022-07-29T01:08:23;18.10;99.90
25438;DHT22;13364;49.084;9.978;2022-07-29T01:10:51;18.10;99.90
25438;DHT22;13364;49.084;9.978;2022-07-29T01:13:20;18.00;99.90
25438;DHT22;13364;49.084;9.978;2022-07-29T01:15:53;18.00;99.90
25438;DHT22;13364;49.084;9.978;2022-07-29T01:18:34;17.90;99.90
25438;DHT22;13364;49.084;9.978;2022-07-29T01:24:34;17.80;99.90
25438;DHT22;13364;49.084;9.978;2022-07-29T01:29:57;17.70;99.90
25438;DHT22;13364;49.084;9.978;2022-07-29T01:32:31;17.70;99.90
25438;DHT22;13364;49.084;9.978;2022-07-29T01:35:04;17.60;99.90
25438;DHT22;13364;49.084;9.978;2022-07-29T01:37:39;17.60;99.90
25438;DHT22;13364;49.084;9.978;2022-07-29T01:40:49;17.60;99.90
25438;DHT22;13364;49.084;9.978;2022-07-29T01:43:26;17.60;99.90
25438;DHT22;13364;49.084;9.978;2022-07-29T01:46:01;17.60;99.90
25438;DHT22;13364;49.084;9.978;2022-07-29T01:48:37;17.60;99.90
25438;DHT22;13364;49.084;9.978;2022-07-29T01:51:24;17.60;99.90
25438;DHT22;13364;49.084;9.978;2022-07-29T01:56:49;17.50;99.90
25438;DHT22;13364;49.084;9.978;2022-07-29T01:59:18;17.40;99.90
25438;DHT22;13364;49.084;9.978;2022-07-29T02:01:48;17.50;99.90
25438;DHT22;13364;49.084;9.978;2022-07-29T02:04:20;17.40;99.90
25438;DHT22;13364;49.084;9.978;2022-07-29T02:07:00;17.40;99.90
25438;DHT22;13364;49.084;9.978;2022-07-29T02:09:30;17.30;99.90
25438;DHT22;13364;49.084;9.978;2022-07-29T02:11:59;17.40;99.90
25438;DHT22;13364;49.084;9.978;2022-07-29T02:14:31;17.40;99.90
25438;DHT22;13364;49.084;9.978;2022-07-29T02:17:00;17.40;99.90
25438;DHT22;13364;49.084;9.978;2022-07-29T02:19:30;17.40;99.90
25438;DHT22;13364;49.084;9.978;2022-07-29T02:22:00;17.40;99.90
25438;DHT22;13364;49.084;9.978;2022-07-29T02:24:28;17.40;99.90
25438;DHT22;13364;49.084;9.978;2022-07-29T02:26:58;17.40;99.90
25438;DHT22;13364;49.084;9.978;2022-07-29T02:29:27;17.40;99.90
25438;DHT22;13364;49.084;9.978;2022-07-29T02:31:56;17.40;99.90
25438;DHT22;13364;49.084;9.978;2022-07-29T02:34:24;17.40;99.90
25438;DHT22;13364;49.084;9.978;2022-07-29T02:36:52;17.40;99.90
25438;DHT22;13364;49.084;9.978;2022-07-29T02:39:22;17.40;99.90
25438;DHT22;13364;49.084;9.978;2022-07-29T02:41:55;17.40;99.90
25438;DHT22;13364;49.084;9.978;2022-07-29T02:44:24;17.30;99.90
25438;DHT22;13364;49.084;9.978;2022-07-29T02:50:12;17.30;99.90
25438;DHT22;13364;49.084;9.978;2022-07-29T02:52:55;17.20;99.90
25438;DHT22;13364;49.084;9.978;2022-07-29T02:55:43;17.20;99.90
25438;DHT22;13364;49.084;9.978;2022-07-29T03:00:40;17.10;99.90
25438;DHT22;13364;49.084;9.978;2022-07-29T03:03:12;17.10;99.90
25438;DHT22;13364;49.084;9.978;2022-07-29T03:05:40;17.10;99.90
25438;DHT22;13364;49.084;9.978;2022-07-29T03:11:26;17.00;99.90
25438;DHT22;13364;49.084;9.978;2022-07-29T03:14:13;17.00;99.90
25438;DHT22;13364;49.084;9.978;2022-07-29T03:16:41;17.00;99.90
25438;DHT22;13364;49.084;9.978;2022-07-29T03:19:09;17.00;99.90
25438;DHT22;13364;49.084;9.978;2022-07-29T03:21:36;17.00;99.90
25438;DHT22;13364;49.084;9.978;2022-07-29T03:24:03;17.00;99.90
25438;DHT22;13364;49.084;9.978;2022-07-29T03:26:36;16.90;99.90
25438;DHT22;13364;49.084;9.978;2022-07-29T03:29:03;16.90;99.90
25438;DHT22;13364;49.084;9.978;2022-07-29T03:31:31;16.90;99.90
25438;DHT22;13364;49.084;9.978;2022-07-29T03:33:59;16.90;99.90
25438;DHT22;13364;49.084;9.978;2022-07-29T03:36:26;16.90;99.90
25438;DHT22;13364;49.084;9.978;2022-07-29T03:38:53;17.00;99.90
25438;DHT22;13364;49.084;9.978;2022-07-29T03:41:22;17.00;99.90
25438;DHT22;13364;49.084;9.978;2022-07-29T03:43:51;17.00;99.90
25438;DHT22;13364;49.084;9.978;2022-07-29T03:46:20;17.00;99.90
25438;DHT22;13364;49.084;9.978;2022-07-29T03:48:53;17.00;99.90
25438;DHT22;13364;49.084;9.978;2022-07-29T03:51:23;17.00;99.90
25438;DHT22;13364;49.084;9.978;2022-07-29T03:54:01;16.90;99.90
25438;DHT22;13364;49.084;9.978;2022-07-29T03:56:39;17.00;99.90
25438;DHT22;13364;49.084;9.978;2022-07-29T03:59:08;16.90;99.90
25438;DHT22;13364;49.084;9.978;2022-07-29T04:01:37;16.90;99.90
25438;DHT22;13364;49.084;9.978;2022-07-29T04:04:05;16.90;99.90
25438;DHT22;13364;49.084;9.978;2022-07-29T04:06:43;16.90;99.90
25438;DHT22;13364;49.084;9.978;2022-07-29T04:09:11;16.80;99.90
25438;DHT22;13364;49.084;9.978;2022-07-29T04:11:40;16.80;99.90
25438;DHT22;13364;49.084;9.978;2022-07-29T04:14:27;16.80;99.90
25438;DHT22;13364;49.084;9.978;2022-07-29T04:16:54;16.80;99.90
25438;DHT22;13364;49.084;9.978;2022-07-29T04:19:22;16.80;99.90
25438;DHT22;13364;49.084;9.978;2022-07-29T04:21:49;16.90;99.90
25438;DHT22;13364;49.084;9.978;2022-07-29T04:24:16;16.90;99.90
25438;DHT22;13364;49.084;9.978;2022-07-29T04:26:46;16.90;99.90
25438;DHT22;13364;49.084;9.978;2022-07-29T04:29:13;16.90;99.90
25438;DHT22;13364;49.084;9.978;2022-07-29T04:31:41;16.90;99.90
25438;DHT22;13364;49.084;9.978;2022-07-29T04:34:10;16.90;99.90
25438;DHT22;13364;49.084;9.978;2022-07-29T04:36:37;16.90;99.90
25438;DHT22;13364;49.084;9.978;2022-07-29T04:39:04;16.90;99.90
25438;DHT22;13364;49.084;9.978;2022-07-29T04:41:31;16.90;99.90
25438;DHT22;13364;49.084;9.978;2022-07-29T04:44:00;16.90;99.90
25438;DHT22;13364;49.084;9.978;2022-07-29T04:46:38;16.90;99.90
25438;DHT22;13364;49.084;9.978;2022-07-29T04:49:05;16.90;99.90
25438;DHT22;13364;49.084;9.978;2022-07-29T04:51:33;17.00;99.90
25438;DHT22;13364;49.084;9.978;2022-07-29T04:54:00;17.00;99.90
25438;DHT22;13364;49.084;9.978;2022-07-29T04:56:27;16.90;99.90
25438;DHT22;13364;49.084;9.978;2022-07-29T04:58:54;17.00;99.90
25438;DHT22;13364;49.084;9.978;2022-07-29T05:01:21;17.00;99.90
25438;DHT22;13364;49.084;9.978;2022-07-29T05:03:48;17.10;99.90
25438;DHT22;13364;49.084;9.978;2022-07-29T05:06:15;17.10;99.90
25438;DHT22;13364;49.084;9.978;2022-07-29T05:08:43;17.10;99.90
25438;DHT22;13364;49.084;9.978;2022-07-29T05:11:10;17.20;99.90
25438;DHT22;13364;49.084;9.978;2022-07-29T05:13:40;17.20;99.90
25438;DHT22;13364;49.084;9.978;2022-07-29T05:16:13;17.20;99.90
25438;DHT22;13364;49.084;9.978;2022-07-29T05:18:41;17.20;99.90
25438;DHT22;13364;49.084;9.978;2022-07-29T05:21:09;17.20;99.90
25438;DHT22;13364;49.084;9.978;2022-07-29T05:23:36;17.20;99.90
25438;DHT22;13364;49.084;9.978;2022-07-29T05:26:03;17.20;99.90
25438;DHT22;13364;49.084;9.978;2022-07-29T05:28:33;17.30;99.90
25438;DHT22;13364;49.084;9.978;2022-07-29T05:31:01;17.40;99.90
25438;DHT22;13364;49.084;9.978;2022-07-29T05:33:29;17.40;99.90
25438;DHT22;13364;49.084;9.978;2022-07-29T05:36:04;17.40;99.90
25438;DHT22;13364;49.084;9.978;2022-07-29T05:38:35;17.50;99.90
25438;DHT22;13364;49.084;9.978;2022-07-29T05:41:02;17.50;99.90
25438;DHT22;13364;49.084;9.978;2022-07-29T05:43:30;17.50;99.90
25438;DHT22;13364;49.084;9.978;2022-07-29T05:45:57;17.60;99.90
25438;DHT22;13364;49.084;9.978;2022-07-29T05:48:36;17.60;99.90
25438;DHT22;13364;49.084;9.978;2022-07-29T05:51:03;17.60;99.90
25438;DHT22;13364;49.084;9.978;2022-07-29T05:53:30;17.70;99.90
25438;DHT22;13364;49.084;9.978;2022-07-29T05:55:57;17.80;99.90
25438;DHT22;13364;49.084;9.978;2022-07-29T05:58:24;17.80;99.90
25438;DHT22;13364;49.084;9.978;2022-07-29T06:00:51;17.90;99.90
25438;DHT22;13364;49.084;9.978;2022-07-29T06:03:19;18.00;99.90
25438;DHT22;13364;49.084;9.978;2022-07-29T06:05:46;18.10;99.90
25438;DHT22;13364;49.084;9.978;2022-07-29T06:08:13;18.30;99.90
25438;DHT22;13364;49.084;9.978;2022-07-29T06:10:40;18.40;99.90
25438;DHT22;13364;49.084;9.978;2022-07-29T06:13:07;18.40;99.90
25438;DHT22;13364;49.084;9.978;2022-07-29T06:15:34;18.50;99.90
25438;DHT22;13364;49.084;9.978;2022-07-29T06:18:02;18.70;99.90
25438;DHT22;13364;49.084;9.978;2022-07-29T06:20:30;18.80;99.90
25438;DHT22;13364;49.084;9.978;2022-07-29T06:22:58;18.90;99.90
25438;DHT22;13364;49.084;9.978;2022-07-29T06:25:26;19.00;99.90
25438;DHT22;13364;49.084;9.978;2022-07-29T06:27:56;19.10;99.90
25438;DHT22;13364;49.084;9.978;2022-07-29T06:30:23;19.20;99.90
25438;DHT22;13364;49.084;9.978;2022-07-29T06:32:50;19.30;99.90
25438;DHT22;13364;49.084;9.978;2022-07-29T06:35:18;19.50;99.90
25438;DHT22;13364;49.084;9.978;2022-07-29T06:38:05;19.50;99.90
25438;DHT22;13364;49.084;9.978;2022-07-29T06:40:52;19.60;99.90
25438;DHT22;13364;49.084;9.978;2022-07-29T06:43:40;19.80;99.90
25438;DHT22;13364;49.084;9.978;2022-07-29T06:46:20;19.90;99.90
25438;DHT22;13364;49.084;9.978;2022-07-29T06:48:49;20.00;99.90
25438;DHT22;13364;49.084;9.978;2022-07-29T06:51:17;20.10;99.90
25438;DHT22;13364;49.084;9.978;2022-07-29T06:53:52;20.20;99.90
25438;DHT22;13364;49.084;9.978;2022-07-29T06:56:32;20.30;99.90
25438;DHT22;13364;49.084;9.978;2022-07-29T06:59:07;20.40;99.90
25438;DHT22;13364;49.084;9.978;2022-07-29T07:01:36;20.40;99.90
25438;DHT22;13364;49.084;9.978;2022-07-29T07:04:04;20.50;99.90
25438;DHT22;13364;49.084;9.978;2022-07-29T07:06:31;20.50;99.90
25438;DHT22;13364;49.084;9.978;2022-07-29T07:08:58;20.60;99.90
25438;DHT22;13364;49.084;9.978;2022-07-29T07:11:25;20.60;99.90
25438;DHT22;13364;49.084;9.978;2022-07-29T07:13:53;20.70;99.90
25438;DHT22;13364;49.084;9.978;2022-07-29T07:16:26;20.80;99.90
25438;DHT22;13364;49.084;9.978;2022-07-29T07:18:53;20.90;99.90
25438;DHT22;13364;49.084;9.978;2022-07-29T07:21:20;21.00;99.90
25438;DHT22;13364;49.084;9.978;2022-07-29T07:23:47;21.10;99.90
25438;DHT22;13364;49.084;9.978;2022-07-29T07:30:13;21.40;99.90
25438;DHT22;13364;49.084;9.978;2022-07-29T07:32:40;21.40;99.90
25438;DHT22;13364;49.084;9.978;2022-07-29T07:35:08;21.50;99.90
25438;DHT22;13364;49.084;9.978;2022-07-29T07:37:36;21.60;99.90
25438;DHT22;13364;49.084;9.978;2022-07-29T07:40:04;21.70;99.90
25438;DHT22;13364;49.084;9.978;2022-07-29T07:42:31;21.80;99.90
25438;DHT22;13364;49.084;9.978;2022-07-29T07:44:58;21.90;99.90
25438;DHT22;13364;49.084;9.978;2022-07-29T07:47:39;22.00;99.90
25438;DHT22;13364;49.084;9.978;2022-07-29T07:50:08;22.20;99.90
25438;DHT22;13364;49.084;9.978;2022-07-29T07:52:52;22.30;99.90
25438;DHT22;13364;49.084;9.978;2022-07-29T07:55:19;22.40;99.90
25438;DHT22;13364;49.084;9.978;2022-07-29T07:57:47;22.50;99.90
25438;DHT22;13364;49.084;9.978;2022-07-29T08:00:15;22.60;99.90
25438;DHT22;13364;49.084;9.978;2022-07-29T08:02:43;22.70;99.90
25438;DHT22;13364;49.084;9.978;2022-07-29T08:05:12;22.90;99.90
25438;DHT22;13364;49.084;9.978;2022-07-29T08:07:44;22.90;99.90
25438;DHT22;13364;49.084;9.978;2022-07-29T08:10:14;23.00;99.90
25438;DHT22;13364;49.084;9.978;2022-07-29T08:12:41;23.00;99.90
25438;DHT22;13364;49.084;9.978;2022-07-29T08:15:09;23.10;99.90
25438;DHT22;13364;49.084;9.978;2022-07-29T08:17:36;23.20;99.90
25438;DHT22;13364;49.084;9.978;2022-07-29T08:20:03;23.30;99.90
25438;DHT22;13364;49.084;9.978;2022-07-29T08:22:30;23.40;99.90
25438;DHT22;13364;49.084;9.978;2022-07-29T08:24:57;23.60;99.90
25438;DHT22;13364;49.084;9.978;2022-07-29T08:27:24;23.70;99.90
25438;DHT22;13364;49.084;9.978;2022-07-29T08:30:09;23.90;99.90
25438;DHT22;13364;49.084;9.978;2022-07-29T08:32:37;24.00;99.90
25438;DHT22;13364;49.084;9.978;2022-07-29T08:35:22;24.20;99.90
25438;DHT22;13364;49.084;9.978;2022-07-29T08:37:50;24.30;99.90
25438;DHT22;13364;49.084;9.978;2022-07-29T08:40:17;24.40;99.90
25438;DHT22;13364;49.084;9.978;2022-07-29T08:42:56;24.60;99.90
25438;DHT22;13364;49.084;9.978;2022-07-29T08:45:23;24.60;99.90
25438;DHT22;13364;49.084;9.978;2022-07-29T08:47:52;24.60;99.90
25438;DHT22;13364;49.084;9.978;2022-07-29T08:50:19;24.60;99.90
25438;DHT22;13364;49.084;9.978;2022-07-29T08:52:46;24.60;99.90
25438;DHT22;13364;49.084;9.978;2022-07-29T08:55:16;24.70;99.90
25438;DHT22;13364;49.084;9.978;2022-07-29T08:57:47;24.80;99.90
25438;DHT22;13364;49.084;9.978;2022-07-29T09:00:21;24.90;99.90
25438;DHT22;13364;49.084;9.978;2022-07-29T09:02:54;25.00;99.90
25438;DHT22;13364;49.084;9.978;2022-07-29T09:05:24;25.20;99.90
25438;DHT22;13364;49.084;9.978;2022-07-29T09:07:52;25.40;99.90
25438;DHT22;13364;49.084;9.978;2022-07-29T09:10:19;25.60;99.90
25438;DHT22;13364;49.084;9.978;2022-07-29T09:12:46;25.70;99.90
25438;DHT22;13364;49.084;9.978;2022-07-29T09:15:14;25.90;99.90
25438;DHT22;13364;49.084;9.978;2022-07-29T09:17:45;26.10;99.90
25438;DHT22;13364;49.084;9.978;2022-07-29T09:20:21;26.30;99.90
25438;DHT22;13364;49.084;9.978;2022-07-29T09:22:50;26.40;99.90
25438;DHT22;13364;49.084;9.978;2022-07-29T09:25:36;26.40;99.90
25438;DHT22;13364;49.084;9.978;2022-07-29T09:28:12;26.20;99.90
25438;DHT22;13364;49.084;9.978;2022-07-29T09:30:59;26.10;99.90
25438;DHT22;13364;49.084;9.978;2022-07-29T09:33:33;26.10;99.90
25438;DHT22;13364;49.084;9.978;2022-07-29T09:36:08;26.00;99.90
25438;DHT22;13364;49.084;9.978;2022-07-29T09:39:10;25.90;99.90
25438;DHT22;13364;49.084;9.978;2022-07-29T09:41:51;25.70;99.90
25438;DHT22;13364;49.084;9.978;2022-07-29T09:44:22;25.60;99.90
25438;DHT22;13364;49.084;9.978;2022-07-29T09:47:16;25.60;99.90
25438;DHT22;13364;49.084;9.978;2022-07-29T09:49:58;25.70;99.90
25438;DHT22;13364;49.084;9.978;2022-07-29T09:52:29;25.70;99.90
25438;DHT22;13364;49.084;9.978;2022-07-29T09:55:06;25.60;99.90
25438;DHT22;13364;49.084;9.978;2022-07-29T09:57:40;25.40;99.90
25438;DHT22;13364;49.084;9.978;2022-07-29T10:00:13;25.40;99.90
25438;DHT22;13364;49.084;9.978;2022-07-29T10:02:43;25.50;99.90
25438;DHT22;13364;49.084;9.978;2022-07-29T10:05:25;25.70;99.90
25438;DHT22;13364;49.084;9.978;2022-07-29T10:08:02;25.90;99.90
25438;DHT22;13364;49.084;9.978;2022-07-29T10:10:34;26.20;99.90
25438;DHT22;13364;49.084;9.978;2022-07-29T10:16:36;26.60;99.00
25438;DHT22;13364;49.084;9.978;2022-07-29T10:19:03;26.90;96.80
25438;DHT22;13364;49.084;9.978;2022-07-29T10:21:30;26.90;96.80
25438;DHT22;13364;49.084;9.978;2022-07-29T10:24:05;27.10;98.30
25438;DHT22;13364;49.084;9.978;2022-07-29T10:26:41;27.20;95.50
25438;DHT22;13364;49.084;9.978;2022-07-29T10:29:08;27.00;96.00
25438;DHT22;13364;49.084;9.978;2022-07-29T10:34:35;26.90;95.70
25438;DHT22;13364;49.084;9.978;2022-07-29T10:37:23;26.90;95.90
25438;DHT22;13364;49.084;9.978;2022-07-29T10:43:16;27.10;96.10
25438;DHT22;13364;49.084;9.978;2022-07-29T10:45:49;27.20;96.40
25438;DHT22;13364;49.084;9.978;2022-07-29T10:48:23;27.50;93.10
25438;DHT22;13364;49.084;9.978;2022-07-29T10:51:04;27.70;93.30
25438;DHT22;13364;49.084;9.978;2022-07-29T10:53:52;27.90;92.30
25438;DHT22;13364;49.084;9.978;2022-07-29T10:56:27;28.10;92.10
25438;DHT22;13364;49.084;9.978;2022-07-29T11:06:07;28.40;90.60
25438;DHT22;13364;49.084;9.978;2022-07-29T11:08:35;28.50;87.80
25438;DHT22;13364;49.084;9.978;2022-07-29T11:13:55;28.60;86.40
25438;DHT22;13364;49.084;9.978;2022-07-29T11:16:23;28.90;86.30
25438;DHT22;13364;49.084;9.978;2022-07-29T11:21:41;29.00;84.50
25438;DHT22;13364;49.084;9.978;2022-07-29T11:24:29;28.80;83.90
25438;DHT22;13364;49.084;9.978;2022-07-29T11:27:11;28.90;88.10
25438;DHT22;13364;49.084;9.978;2022-07-29T11:29:51;29.20;86.90
25438;DHT22;13364;49.084;9.978;2022-07-29T11:32:20;29.40;85.50
25438;DHT22;13364;49.084;9.978;2022-07-29T11:35:21;29.60;84.10
25438;DHT22;13364;49.084;9.978;2022-07-29T11:41:22;29.30;83.20
25438;DHT22;13364;49.084;9.978;2022-07-29T11:43:58;29.10;84.30
25438;DHT22;13364;49.084;9.978;2022-07-29T11:46:47;28.90;84.00
25438;DHT22;13364;49.084;9.978;2022-07-29T11:49:24;28.70;83.00
25438;DHT22;13364;49.084;9.978;2022-07-29T11:51:59;28.40;85.30
25438;DHT22;13364;49.084;9.978;2022-07-29T11:54:34;28.20;86.60
25438;DHT22;13364;49.084;9.978;2022-07-29T11:57:22;28.10;87.50
25438;DHT22;13364;49.084;9.978;2022-07-29T12:00:06;28.00;87.60
25438;DHT22;13364;49.084;9.978;2022-07-29T12:02:41;27.80;86.10
25438;DHT22;13364;49.084;9.978;2022-07-29T12:05:14;27.70;86.60
25438;DHT22;13364;49.084;9.978;2022-07-29T12:08:06;27.50;86.50
25438;DHT22;13364;49.084;9.978;2022-07-29T12:10:39;27.30;87.40
25438;DHT22;13364;49.084;9.978;2022-07-29T12:13:08;27.20;87.40
25438;DHT22;13364;49.084;9.978;2022-07-29T12:15:36;27.10;88.90
25438;DHT22;13364;49.084;9.978;2022-07-29T12:18:18;27.00;89.30
25438;DHT22;13364;49.084;9.978;2022-07-29T12:21:00;27.00;91.00
25438;DHT22;13364;49.084;9.978;2022-07-29T12:23:31;26.90;90.10
25438;DHT22;13364;49.084;9.978;2022-07-29T12:26:04;26.70;90.30
25438;DHT22;13364;49.084;9.978;2022-07-29T12:28:39;26.60;91.00
25438;DHT22;13364;49.084;9.978;2022-07-29T12:31:13;26.50;92.10
25438;DHT22;13364;49.084;9.978;2022-07-29T12:34:00;26.50;92.10
25438;DHT22;13364;49.084;9.978;2022-07-29T12:36:28;26.40;93.50
25438;DHT22;13364;49.084;9.978;2022-07-29T12:38:55;26.30;94.20
25438;DHT22;13364;49.084;9.978;2022-07-29T12:41:22;26.10;95.00
25438;DHT22;13364;49.084;9.978;2022-07-29T12:43:53;26.00;95.70
25438;DHT22;13364;49.084;9.978;2022-07-29T12:46:21;26.00;96.20
25438;DHT22;13364;49.084;9.978;2022-07-29T12:48:51;25.90;95.40
25438;DHT22;13364;49.084;9.978;2022-07-29T12:51:34;25.80;95.40
25438;DHT22;13364;49.084;9.978;2022-07-29T12:54:08;25.90;97.50
25438;DHT22;13364;49.084;9.978;2022-07-29T12:56:38;26.00;95.60
25438;DHT22;13364;49.084;9.978;2022-07-29T12:59:20;26.30;94.40
25438;DHT22;13364;49.084;9.978;2022-07-29T13:01:49;26.40;94.10
25438;DHT22;13364;49.084;9.978;2022-07-29T13:04:31;26.60;93.40
25438;DHT22;13364;49.084;9.978;2022-07-29T13:07:03;26.70;93.10
25438;DHT22;13364;49.084;9.978;2022-07-29T13:09:43;26.60;93.10
25438;DHT22;13364;49.084;9.978;2022-07-29T13:12:13;26.60;92.60
25438;DHT22;13364;49.084;9.978;2022-07-29T13:14:42;26.70;92.60
25438;DHT22;13364;49.084;9.978;2022-07-29T13:17:16;26.70;92.30
25438;DHT22;13364;49.084;9.978;2022-07-29T13:22:19;26.70;91.00
25438;DHT22;13364;49.084;9.978;2022-07-29T13:24:54;26.70;90.60
25438;DHT22;13364;49.084;9.978;2022-07-29T13:27:23;26.60;90.20
25438;DHT22;13364;49.084;9.978;2022-07-29T13:29:51;26.60;91.30
25438;DHT22;13364;49.084;9.978;2022-07-29T13:32:20;26.60;92.20
25438;DHT22;13364;49.084;9.978;2022-07-29T13:34:58;26.60;92.80
25438;DHT22;13364;49.084;9.978;2022-07-29T13:37:26;26.70;92.90
25438;DHT22;13364;49.084;9.978;2022-07-29T13:39:57;26.80;92.60
25438;DHT22;13364;49.084;9.978;2022-07-29T13:42:24;26.70;92.20
25438;DHT22;13364;49.084;9.978;2022-07-29T13:44:52;26.70;92.90
25438;DHT22;13364;49.084;9.978;2022-07-29T13:47:42;26.60;93.70
25438;DHT22;13364;49.084;9.978;2022-07-29T13:50:15;26.80;93.00
25438;DHT22;13364;49.084;9.978;2022-07-29T13:52:42;27.10;93.40
25438;DHT22;13364;49.084;9.978;2022-07-29T13:55:09;27.20;90.70
25438;DHT22;13364;49.084;9.978;2022-07-29T13:57:36;27.20;91.10
25438;DHT22;13364;49.084;9.978;2022-07-29T14:00:04;27.10;90.30
25438;DHT22;13364;49.084;9.978;2022-07-29T14:02:34;26.90;89.80
25438;DHT22;13364;49.084;9.978;2022-07-29T14:05:01;26.90;87.50
25438;DHT22;13364;49.084;9.978;2022-07-29T14:07:34;26.90;85.60
25438;DHT22;13364;49.084;9.978;2022-07-29T14:10:01;27.10;84.40
25438;DHT22;13364;49.084;9.978;2022-07-29T14:12:28;27.30;81.70
25438;DHT22;13364;49.084;9.978;2022-07-29T14:14:55;27.50;80.00
25438;DHT22;13364;49.084;9.978;2022-07-29T14:17:22;27.60;77.50
25438;DHT22;13364;49.084;9.978;2022-07-29T14:19:50;27.70;74.50
25438;DHT22;13364;49.084;9.978;2022-07-29T14:22:17;27.70;74.60
25438;DHT22;13364;49.084;9.978;2022-07-29T14:24:48;27.60;72.00
25438;DHT22;13364;49.084;9.978;2022-07-29T14:27:15;27.50;70.90
25438;DHT22;13364;49.084;9.978;2022-07-29T14:29:43;27.40;70.40
25438;DHT22;13364;49.084;9.978;2022-07-29T14:32:10;27.30;72.00
25438;DHT22;13364;49.084;9.978;2022-07-29T14:34:38;27.10;74.20
25438;DHT22;13364;49.084;9.978;2022-07-29T14:37:06;26.80;75.20
25438;DHT22;13364;49.084;9.978;2022-07-29T14:39:34;26.50;75.80
25438;DHT22;13364;49.084;9.978;2022-07-29T14:42:08;26.30;76.20
25438;DHT22;13364;49.084;9.978;2022-07-29T14:44:39;26.00;77.30
25438;DHT22;13364;49.084;9.978;2022-07-29T14:47:07;25.90;78.80
25438;DHT22;13364;49.084;9.978;2022-07-29T14:49:34;25.70;79.20
25438;DHT22;13364;49.084;9.978;2022-07-29T14:52:02;25.50;80.20
25438;DHT22;13364;49.084;9.978;2022-07-29T14:54:29;25.40;80.60
25438;DHT22;13364;49.084;9.978;2022-07-29T14:56:56;25.30;81.70
25438;DHT22;13364;49.084;9.978;2022-07-29T14:59:25;25.20;81.50
25438;DHT22;13364;49.084;9.978;2022-07-29T15:01:52;25.20;82.80
25438;DHT22;13364;49.084;9.978;2022-07-29T15:04:19;25.30;81.20
25438;DHT22;13364;49.084;9.978;2022-07-29T15:06:47;25.20;82.10
25438;DHT22;13364;49.084;9.978;2022-07-29T15:09:14;25.20;82.10
25438;DHT22;13364;49.084;9.978;2022-07-29T15:11:41;25.10;82.20
25438;DHT22;13364;49.084;9.978;2022-07-29T15:14:08;25.10;83.00
25438;DHT22;13364;49.084;9.978;2022-07-29T15:16:37;25.00;82.60
25438;DHT22;13364;49.084;9.978;2022-07-29T15:19:08;25.00;83.00
25438;DHT22;13364;49.084;9.978;2022-07-29T15:21:35;24.90;84.00
25438;DHT22;13364;49.084;9.978;2022-07-29T15:24:22;24.80;84.50
25438;DHT22;13364;49.084;9.978;2022-07-29T15:26:49;24.80;85.00
25438;DHT22;13364;49.084;9.978;2022-07-29T15:29:17;24.70;85.80
25438;DHT22;13364;49.084;9.978;2022-07-29T15:31:44;24.70;86.10
25438;DHT22;13364;49.084;9.978;2022-07-29T15:34:11;24.60;86.90
25438;DHT22;13364;49.084;9.978;2022-07-29T15:36:38;24.60;87.20
25438;DHT22;13364;49.084;9.978;2022-07-29T15:43:37;24.60;87.80
25438;DHT22;13364;49.084;9.978;2022-07-29T15:46:05;24.50;88.50
25438;DHT22;13364;49.084;9.978;2022-07-29T15:48:51;24.50;88.90
25438;DHT22;13364;49.084;9.978;2022-07-29T15:51:18;24.50;88.80
25438;DHT22;13364;49.084;9.978;2022-07-29T15:53:45;24.50;88.90
25438;DHT22;13364;49.084;9.978;2022-07-29T15:56:19;24.40;89.80
25438;DHT22;13364;49.084;9.978;2022-07-29T15:58:46;24.50;90.60
25438;DHT22;13364;49.084;9.978;2022-07-29T16:01:13;24.70;93.10
25438;DHT22;13364;49.084;9.978;2022-07-29T16:03:40;24.70;93.80
25438;DHT22;13364;49.084;9.978;2022-07-29T16:06:12;24.60;95.20
25438;DHT22;13364;49.084;9.978;2022-07-29T16:08:39;24.70;96.70
25438;DHT22;13364;49.084;9.978;2022-07-29T16:11:06;24.60;98.20
25438;DHT22;13364;49.084;9.978;2022-07-29T16:13:33;24.40;99.50
25438;DHT22;13364;49.084;9.978;2022-07-29T16:16:00;24.40;99.60
25438;DHT22;13364;49.084;9.978;2022-07-29T16:18:29;24.30;99.90
25438;DHT22;13364;49.084;9.978;2022-07-29T16:20:56;24.20;99.90
25438;DHT22;13364;49.084;9.978;2022-07-29T16:23:23;24.00;99.90
25438;DHT22;13364;49.084;9.978;2022-07-29T16:25:51;23.90;99.90
25438;DHT22;13364;49.084;9.978;2022-07-29T16:28:28;23.80;99.90
25438;DHT22;13364;49.084;9.978;2022-07-29T16:30:55;23.70;99.90
25438;DHT22;13364;49.084;9.978;2022-07-29T16:33:23;23.70;99.90
25438;DHT22;13364;49.084;9.978;2022-07-29T16:35:51;23.60;99.90
25438;DHT22;13364;49.084;9.978;2022-07-29T16:38:18;23.60;99.90
25438;DHT22;13364;49.084;9.978;2022-07-29T16:40:45;23.60;99.90
25438;DHT22;13364;49.084;9.978;2022-07-29T16:43:12;23.50;99.90
25438;DHT22;13364;49.084;9.978;2022-07-29T16:45:40;23.40;99.90
25438;DHT22;13364;49.084;9.978;2022-07-29T16:48:13;23.40;99.90
25438;DHT22;13364;49.084;9.978;2022-07-29T16:50:40;23.20;99.90
25438;DHT22;13364;49.084;9.978;2022-07-29T16:53:09;23.20;99.90
25438;DHT22;13364;49.084;9.978;2022-07-29T16:55:37;23.20;99.90